Time;durP1;ratioP1;P1;durP2;ratioP2;P2;SDS_P1;SDS_P2;PMS_P1;PMS_P2;Temp;Humidity;BMP_temperature;BMP_pressure;BME280_temperature;BME280_humidity;BME280_pressure;Samples;Min_cycle;Max_cycle;Signal;HPM_P1;HPM_P2
2023/08/04 00:01:14;;;;;;;1.90;0.40;;;;;;;14.15;100.00;97239.50;18439442;32;20069;-57
2023/08/04 00:11:17;;;;;;;1.62;0.50;;;;;;;14.30;100.00;97249.25;18418473;32;20062;-57
2023/08/04 00:21:19;;;;;;;0.75;0.30;;;;;;;14.27;100.00;97239.78;18424446;32;20081;-57
2023/08/04 00:31:22;;;;;;;0.60;0.30;;;;;;;14.17;100.00;97240.81;18423606;32;20485;-57
2023/08/04 00:41:24;;;;;;;1.70;0.30;;;;;;;14.11;100.00;97239.28;18437219;32;20061;-57
2023/08/04 00:51:27;;;;;;;1.37;0.60;;;;;;;14.02;100.00;97252.78;18436233;32;20061;-57
2023/08/04 01:01:29;;;;;;;1.02;0.40;;;;;;;13.93;100.00;97251.09;18419341;32;20062;-57
2023/08/04 01:11:40;;;;;;;1.15;0.43;;;;;;;13.82;100.00;97250.47;18431938;32;20110;-57
2023/08/04 01:21:43;;;;;;;1.62;0.37;;;;;;;13.81;100.00;97257.81;18434621;32;20110;-58
2023/08/04 01:31:46;;;;;;;2.40;0.30;;;;;;;13.92;100.00;97252.19;18407095;32;20050;-58
2023/08/04 01:41:48;;;;;;;0.85;0.30;;;;;;;14.02;100.00;97266.38;18432877;32;20095;-57
2023/08/04 01:51:51;;;;;;;1.50;0.50;;;;;;;14.13;100.00;97258.00;18432695;32;20567;-57
2023/08/04 02:01:53;;;;;;;1.40;0.30;;;;;;;14.30;100.00;97260.13;18432119;32;20117;-57
2023/08/04 02:11:55;;;;;;;0.98;0.40;;;;;;;14.41;100.00;97259.59;18432221;32;20073;-58
2023/08/04 02:21:58;;;;;;;0.85;0.50;;;;;;;14.53;100.00;97264.50;18417354;32;20061;-58
2023/08/04 02:32:00;;;;;;;1.37;0.47;;;;;;;14.56;100.00;97253.00;18431028;32;20083;-58
2023/08/04 02:42:03;;;;;;;1.25;0.35;;;;;;;14.58;100.00;97252.72;18416961;32;20077;-58
2023/08/04 02:52:06;;;;;;;2.58;0.40;;;;;;;14.59;100.00;97248.87;18433005;32;20065;-58
2023/08/04 03:02:08;;;;;;;3.22;0.62;;;;;;;14.65;100.00;97250.41;18443296;32;20065;-58
2023/08/04 03:12:11;;;;;;;1.35;0.50;;;;;;;14.65;100.00;97253.12;18428980;32;20065;-58
2023/08/04 03:22:14;;;;;;;1.48;0.40;;;;;;;14.63;100.00;97254.56;18441735;32;20091;-57
2023/08/04 03:32:17;;;;;;;2.17;0.50;;;;;;;14.65;100.00;97268.62;18441382;32;20065;-58
2023/08/04 03:42:19;;;;;;;1.05;0.45;;;;;;;14.71;100.00;97261.97;18440798;32;20100;-57
2023/08/04 03:52:23;;;;;;;1.25;0.80;;;;;;;14.76;100.00;97272.75;18439690;32;20467;-57
2023/08/04 04:02:26;;;;;;;;;;;;;;;14.72;100.00;97266.31;18439518;32;20380;-58
2023/08/04 04:12:28;;;;;;;1.35;0.60;;;;;;;14.73;100.00;97271.47;18439367;32;20272;-58
2023/08/04 04:22:33;;;;;;;2.45;0.50;;;;;;;14.65;100.00;97274.09;18424392;32;20091;-58
2023/08/04 04:32:37;;;;;;;1.85;0.82;;;;;;;14.66;100.00;97275.69;18437930;32;20380;-57
2023/08/04 04:42:40;;;;;;;0.98;0.57;;;;;;;14.65;100.00;97280.34;18430453;32;20045;-58
2023/08/04 04:52:43;;;;;;;1.60;0.73;;;;;;;14.78;100.00;97283.34;18436160;32;20050;-58
2023/08/04 05:02:46;;;;;;;1.42;0.50;;;;;;;14.87;100.00;97292.38;18435766;32;20065;-58
2023/08/04 05:12:50;;;;;;;2.53;0.60;;;;;;;14.94;100.00;97298.22;18420912;32;20061;-58
2023/08/04 05:22:53;;;;;;;1.17;0.50;;;;;;;15.05;100.00;97301.50;18420803;32;20146;-58
2023/08/04 05:33:00;;;;;;;0.80;0.57;;;;;;;15.17;100.00;97299.03;18433927;32;20474;-58
2023/08/04 05:43:04;;;;;;;0.50;0.43;;;;;;;15.36;100.00;97298.84;18433093;32;20069;-58
2023/08/04 05:53:07;;;;;;;1.62;0.50;;;;;;;15.51;100.00;97305.00;18433060;32;20070;-58
2023/08/04 06:03:10;;;;;;;0.80;0.57;;;;;;;15.58;100.00;97316.25;18432224;32;20054;-58
2023/08/04 06:13:13;;;;;;;1.40;0.80;;;;;;;15.76;100.00;97323.44;18418026;32;20102;-58
2023/08/04 06:23:15;;;;;;;0.95;0.60;;;;;;;15.91;100.00;97329.66;18431420;32;20354;-58
2023/08/04 06:33:18;;;;;;;1.17;0.50;;;;;;;16.14;100.00;97324.91;18425063;32;20058;-58
2023/08/04 06:43:21;;;;;;;0.50;0.40;;;;;;;16.49;100.00;97326.97;18416916;32;20093;-58
2023/08/04 06:53:23;;;;;;;1.27;0.60;;;;;;;16.75;100.00;97346.16;18416513;32;20057;-58
2023/08/04 07:03:26;;;;;;;0.95;0.52;;;;;;;16.99;100.00;97347.66;18430561;32;20050;-58
2023/08/04 07:13:29;;;;;;;1.00;0.40;;;;;;;17.22;100.00;97349.09;18430344;32;20050;-58
2023/08/04 07:23:40;;;;;;;1.27;0.60;;;;;;;17.40;100.00;97347.19;18402719;32;20076;-58
2023/08/04 07:33:45;;;;;;;1.48;0.50;;;;;;;17.62;100.00;97359.03;18432631;32;20072;-58
2023/08/04 07:43:51;;;;;;;1.83;0.40;;;;;;;17.94;100.00;97357.72;18440824;32;20057;-58
2023/08/04 07:53:57;;;;;;;1.33;0.40;;;;;;;18.25;100.00;97364.06;18439919;32;20057;-58
2023/08/04 08:04:04;;;;;;;1.08;0.55;;;;;;;18.33;100.00;97368.69;18439808;32;20453;-58
2023/08/04 08:14:06;;;;;;;0.37;0.25;;;;;;;18.42;100.00;97360.47;18439931;32;20082;-58
2023/08/04 08:24:09;;;;;;;0.93;0.30;;;;;;;18.77;100.00;97363.00;18431744;32;20066;-58
2023/08/04 08:34:12;;;;;;;0.20;0.17;;;;;;;18.86;100.00;97363.75;18437869;32;20061;-58
2023/08/04 08:44:15;;;;;;;0.33;0.23;;;;;;;19.18;100.00;97369.69;18421998;32;20159;-58
2023/08/04 08:54:19;;;;;;;1.10;0.33;;;;;;;19.71;100.00;97374.75;18436663;32;20094;-58
2023/08/04 09:04:23;;;;;;;0.57;0.30;;;;;;;20.06;100.00;97367.00;18435735;32;20139;-58
2023/08/04 09:14:27;;;;;;;0.22;0.20;;;;;;;19.90;100.00;97375.06;18408355;32;20078;-58
2023/08/04 09:24:30;;;;;;;2.03;0.20;;;;;;;20.02;100.00;97368.00;18434403;32;20098;-58
2023/08/04 09:34:33;;;;;;;;;;;;;;;20.05;100.00;97378.28;18434147;32;20065;-59
2023/08/04 09:44:37;;;;;;;1.17;0.40;;;;;;;18.59;100.00;97376.78;18434005;32;19952;-58
2023/08/04 09:54:40;;;;;;;;;;;;;;;18.61;100.00;97377.28;18419264;32;20097;-59
2023/08/04 10:04:52;;;;;;;1.08;0.30;;;;;;;19.25;100.00;97375.47;18418445;32;19961;-58
2023/08/04 10:14:59;;;;;;;0.80;0.30;;;;;;;19.57;100.00;97381.31;18411224;32;20049;-58
2023/08/04 10:25:15;;;;;;;0.37;0.10;;;;;;;19.24;100.00;97379.31;18431517;32;20115;-58
2023/08/04 10:35:21;;;;;;;0.88;0.30;;;;;;;19.55;100.00;97383.56;18431375;32;20076;-58
2023/08/04 10:45:50;;;;;;;0.60;0.50;;;;;;;19.59;100.00;97378.22;18430538;32;20373;-58
2023/08/04 10:55:57;;;;;;;1.27;0.37;;;;;;;19.85;100.00;97382.72;18430453;32;20062;-58
2023/08/04 11:06:00;;;;;;;0.75;0.30;;;;;;;20.64;100.00;97377.91;18430311;32;20054;-58
2023/08/04 11:16:04;;;;;;;0.45;0.30;;;;;;;20.50;100.00;97374.72;18442685;32;20106;-58
2023/08/04 11:26:08;;;;;;;0.98;0.20;;;;;;;20.19;100.00;97384.28;18441956;32;20106;-58
2023/08/04 11:36:12;;;;;;;0.37;0.20;;;;;;;20.18;100.00;97385.41;18441317;32;20099;-58
2023/08/04 11:46:18;;;;;;;0.60;0.22;;;;;;;20.74;100.00;97384.13;18440507;32;20068;-58
2023/08/04 11:56:39;;;;;;;0.98;0.28;;;;;;;19.93;100.00;97385.34;18415031;32;20092;-58
2023/08/04 12:06:42;;;;;;;0.30;0.20;;;;;;;19.21;100.00;97382.75;18439609;32;20131;-58
2023/08/04 12:16:56;;;;;;;;;;;;;;;19.29;100.00;97394.75;18412253;32;20057;-59
2023/08/04 12:26:59;;;;;;;0.10;0.08;;;;;;;20.06;100.00;97399.09;18438684;32;19967;-58
2023/08/04 12:37:02;;;;;;;0.30;0.00;;;;;;;20.40;100.00;97413.59;18410284;32;20109;-58
2023/08/04 12:47:07;;;;;;;0.00;0.00;;;;;;;20.45;100.00;97427.09;18422915;32;20108;-58
2023/08/04 12:57:13;;;;;;;0.20;0.05;;;;;;;20.33;100.00;97429.84;18430254;32;20537;-58
2023/08/04 13:07:17;;;;;;;0.17;0.10;;;;;;;20.06;100.00;97432.03;18436052;32;20066;-58
2023/08/04 13:17:20;;;;;;;0.10;0.08;;;;;;;19.52;100.00;97444.59;18434964;32;20057;-58
2023/08/04 13:27:23;;;;;;;0.43;0.20;;;;;;;19.50;100.00;97433.16;18420556;32;20065;-58
2023/08/04 13:37:27;;;;;;;0.43;0.10;;;;;;;19.71;100.00;97430.41;18419246;32;20054;-57
2023/08/04 13:47:30;;;;;;;0.13;0.10;;;;;;;19.36;100.00;97444.38;18406120;32;20046;-58
2023/08/04 13:57:33;;;;;;;0.30;0.10;;;;;;;18.94;100.00;97453.34;18418733;32;20065;-58
2023/08/04 14:07:43;;;;;;;0.57;0.40;;;;;;;18.44;100.00;97454.00;18432460;32;20095;-58
2023/08/04 14:17:46;;;;;;;;;;;;;;;18.13;100.00;97463.25;18418080;32;20076;-58
2023/08/04 14:27:50;;;;;;;1.20;0.35;;;;;;;18.11;100.00;97449.88;18417939;32;20340;-58
2023/08/04 14:37:53;;;;;;;0.53;0.30;;;;;;;18.15;100.00;97466.47;18416744;32;20058;-58
2023/08/04 14:47:57;;;;;;;0.52;0.32;;;;;;;18.28;100.00;97464.66;18441216;32;20064;-58
2023/08/04 14:58:00;;;;;;;1.02;0.47;;;;;;;18.11;100.00;97487.41;18429401;32;20417;-58
2023/08/04 15:08:04;;;;;;;1.10;0.60;;;;;;;17.94;100.00;97504.62;18428828;32;20073;-58
2023/08/04 15:18:07;;;;;;;1.13;0.50;;;;;;;17.68;100.00;97518.25;18442573;32;20066;-58
2023/08/04 15:28:12;;;;;;;1.75;0.57;;;;;;;17.59;100.00;97540.13;18415389;32;20072;-58
2023/08/04 15:38:16;;;;;;;3.78;0.57;;;;;;;17.67;100.00;97538.53;18434631;32;20058;-58
2023/08/04 15:48:19;;;;;;;0.80;0.37;;;;;;;17.65;100.00;97554.44;18440480;32;20057;-58
2023/08/04 15:58:23;;;;;;;0.45;0.35;;;;;;;17.68;100.00;97572.94;18439656;32;20123;-58
2023/08/04 16:08:29;;;;;;;0.37;0.28;;;;;;;17.88;100.00;97582.47;18439814;32;20057;-57
2023/08/04 16:18:35;;;;;;;0.75;0.30;;;;;;;17.94;100.00;97584.75;18424296;32;20115;-58
2023/08/04 16:28:38;;;;;;;0.50;0.47;;;;;;;17.86;100.00;97591.00;18438198;32;20100;-58
2023/08/04 16:38:41;;;;;;;0.62;0.50;;;;;;;17.83;100.00;97602.59;18423302;32;20088;-58
2023/08/04 16:48:46;;;;;;;0.43;0.40;;;;;;;17.92;100.00;97608.91;18437169;32;20045;-58
2023/08/04 16:58:49;;;;;;;0.70;0.50;;;;;;;17.90;100.00;97615.78;18422251;32;20054;-58
2023/08/04 17:08:54;;;;;;;;;;;;;;;17.89;100.00;97628.66;18435319;32;20069;-57
2023/08/04 17:18:58;;;;;;;1.42;0.70;;;;;;;17.99;100.00;97632.22;18435315;32;19956;-58
2023/08/04 17:29:04;;;;;;;1.10;0.80;;;;;;;18.06;100.00;97629.81;18414146;32;20057;-58
2023/08/04 17:39:08;;;;;;;1.33;0.77;;;;;;;17.88;100.00;97629.78;18434316;32;20117;-58
2023/08/04 17:49:12;;;;;;;0.88;0.77;;;;;;;17.61;100.00;97642.59;18433632;32;20076;-58
2023/08/04 17:59:15;;;;;;;0.95;0.80;;;;;;;17.50;100.00;97645.91;18418741;32;20076;-57
2023/08/04 18:09:18;;;;;;;0.93;0.80;;;;;;;17.39;100.00;97653.56;18432336;32;20066;-57
2023/08/04 18:19:21;;;;;;;1.07;0.90;;;;;;;17.37;100.00;97673.03;18431733;32;20069;-58
2023/08/04 18:29:24;;;;;;;1.80;1.20;;;;;;;17.28;100.00;97694.84;18431414;32;20088;-57
2023/08/04 18:39:26;;;;;;;1.13;0.80;;;;;;;17.17;100.00;97704.44;18417209;32;20065;-57
2023/08/04 18:49:29;;;;;;;0.98;0.88;;;;;;;16.89;100.00;97715.50;18430731;32;20080;-58
2023/08/04 18:59:32;;;;;;;1.30;0.85;;;;;;;16.78;100.00;97720.34;18416481;32;20099;-58
2023/08/04 19:09:35;;;;;;;1.08;0.80;;;;;;;16.68;100.00;97715.16;18430368;32;20053;-58
2023/08/04 19:19:38;;;;;;;2.17;1.00;;;;;;;16.51;100.00;97718.56;18423329;32;20058;-57
2023/08/04 19:29:41;;;;;;;2.00;1.12;;;;;;;16.40;100.00;97734.34;18432838;32;20062;-57
2023/08/04 19:39:44;;;;;;;1.13;0.87;;;;;;;16.39;100.00;97726.44;18441614;32;20502;-57
2023/08/04 19:49:47;;;;;;;1.10;0.90;;;;;;;16.33;100.00;97744.06;18440710;32;20049;-57
2023/08/04 19:59:49;;;;;;;0.80;0.80;;;;;;;16.24;100.00;97731.13;18425712;32;20057;-58
2023/08/04 20:09:53;;;;;;;1.00;0.80;;;;;;;16.18;100.00;97747.91;18425624;32;20053;-57
2023/08/04 20:19:55;;;;;;;0.77;0.60;;;;;;;16.11;100.00;97747.53;18438837;32;20080;-58
2023/08/04 20:29:58;;;;;;;1.67;0.80;;;;;;;16.07;100.00;97752.75;18438842;32;20057;-58
2023/08/04 20:40:01;;;;;;;1.55;0.85;;;;;;;16.02;100.00;97772.78;18423771;32;20053;-57
2023/08/04 20:50:05;;;;;;;1.25;0.90;;;;;;;15.96;100.00;97792.28;18422679;32;20449;-58
2023/08/04 21:00:08;;;;;;;1.62;0.88;;;;;;;15.89;100.00;97796.19;18422637;32;20096;-58
2023/08/04 21:10:11;;;;;;;3.13;0.90;;;;;;;15.88;100.00;97813.69;18389613;32;20057;-58
2023/08/04 21:20:17;;;;;;;1.17;0.83;;;;;;;15.88;100.00;97827.31;18435039;32;20057;-58
2023/08/04 21:30:21;;;;;;;1.15;0.85;;;;;;;15.92;100.00;97844.69;18435105;32;20075;-58
2023/08/04 21:40:24;;;;;;;2.80;1.40;;;;;;;15.98;100.00;97863.66;18420155;32;20491;-58
2023/08/04 21:50:31;;;;;;;1.20;0.90;;;;;;;15.93;100.00;97868.09;18418886;32;20054;-58
2023/08/04 22:00:34;;;;;;;1.85;1.50;;;;;;;15.90;100.00;97876.91;18432834;32;20125;-57
2023/08/04 22:10:37;;;;;;;2.67;1.70;;;;;;;15.85;100.00;97860.63;18432074;32;20069;-58
2023/08/04 22:20:39;;;;;;;2.35;1.55;;;;;;;15.76;100.00;97841.41;18431797;32;20053;-58
2023/08/04 22:30:42;;;;;;;2.42;1.92;;;;;;;15.69;100.00;97829.25;18417937;32;20061;-57
2023/08/04 22:40:45;;;;;;;2.83;2.10;;;;;;;15.56;100.00;97815.28;18430934;32;20095;-58
2023/08/04 22:50:48;;;;;;;2.53;1.83;;;;;;;15.52;100.00;97803.38;18431004;32;20467;-58
2023/08/04 23:00:52;;;;;;;2.83;1.98;;;;;;;15.49;100.00;97803.97;18397223;32;20346;-57
2023/08/04 23:10:57;;;;;;;4.53;2.10;;;;;;;15.47;100.00;97822.56;18441554;32;20058;-58
2023/08/04 23:21:00;;;;;;;3.28;1.90;;;;;;;15.43;100.00;97794.28;18442583;32;20498;-58
2023/08/04 23:31:02;;;;;;;2.90;1.90;;;;;;;15.25;100.00;97779.56;18428252;32;20400;-58
2023/08/04 23:41:05;;;;;;;2.72;1.98;;;;;;;15.14;100.00;97787.09;18414416;32;20481;-58
2023/08/04 23:51:08;;;;;;;5.68;2.33;;;;;;;15.06;100.00;97779.59;18434375;32;20484;-57
